createdAt,value
2019-02-21T00:01:21.390Z,95.40
2019-02-21T00:03:50.653Z,95.46
2019-02-21T00:06:19.933Z,95.39
2019-02-21T00:08:49.267Z,95.46
2019-02-21T00:11:18.635Z,95.50
2019-02-21T00:13:47.939Z,95.48
2019-02-21T00:16:17.267Z,95.47
2019-02-21T00:18:46.552Z,95.50
2019-02-21T00:21:15.795Z,95.50
2019-02-21T00:23:45.100Z,95.56
2019-02-21T00:26:14.458Z,95.54
2019-02-21T00:28:43.781Z,95.59
2019-02-21T00:31:13.171Z,95.63
2019-02-21T00:33:42.550Z,95.69
2019-02-21T00:36:11.880Z,95.71
2019-02-21T00:38:41.129Z,95.68
2019-02-21T00:41:10.420Z,95.70
2019-02-21T00:43:39.686Z,95.72
2019-02-21T00:46:08.968Z,95.78
2019-02-21T00:48:38.332Z,95.75
2019-02-21T00:51:07.735Z,95.72
2019-02-21T00:53:37.152Z,95.78
2019-02-21T00:56:06.395Z,95.80
2019-02-21T00:58:35.695Z,95.90
2019-02-21T01:01:05.029Z,95.87
2019-02-21T01:03:34.359Z,95.90
2019-02-21T01:06:03.697Z,95.81
2019-02-21T01:08:32.941Z,95.76
2019-02-21T01:11:02.256Z,95.67
2019-02-21T01:13:31.496Z,95.75
2019-02-21T01:16:00.819Z,95.69
2019-02-21T01:18:30.193Z,95.60
2019-02-21T01:20:59.496Z,95.33
2019-02-21T01:23:28.871Z,95.31
2019-02-21T01:25:58.250Z,95.21
2019-02-21T01:28:27.542Z,95.23
2019-02-21T01:30:57.356Z,95.25
2019-02-21T01:33:26.849Z,95.36
2019-02-21T01:35:56.219Z,95.26
2019-02-21T01:38:25.534Z,95.26
2019-02-21T01:40:54.914Z,95.17
2019-02-21T01:43:24.244Z,94.99
2019-02-21T01:45:53.523Z,94.67
2019-02-21T01:48:22.846Z,94.63
2019-02-21T01:50:52.178Z,94.63
2019-02-21T01:53:21.536Z,94.61
2019-02-21T01:55:50.957Z,94.68
2019-02-21T01:58:20.336Z,94.63
2019-02-21T02:00:49.676Z,94.69
2019-02-21T02:03:19.095Z,94.63
2019-02-21T02:05:48.396Z,94.44
2019-02-21T02:08:17.657Z,94.49
2019-02-21T02:10:47.170Z,94.31
2019-02-21T02:13:24.005Z,94.53
2019-02-21T02:15:47.526Z,94.42
2019-02-21T02:18:16.840Z,94.48
2019-02-21T02:20:46.153Z,94.53
2019-02-21T02:23:15.453Z,94.58
2019-02-21T02:25:44.808Z,94.62
2019-02-21T02:28:14.138Z,94.55
2019-02-21T02:30:43.431Z,94.52
2019-02-21T02:33:12.784Z,94.49
2019-02-21T02:35:42.132Z,94.50
2019-02-21T02:38:11.379Z,94.56
2019-02-21T02:40:40.676Z,94.67
2019-02-21T02:43:09.911Z,94.79
2019-02-21T02:45:39.182Z,94.79
2019-02-21T02:48:08.533Z,94.77
2019-02-21T02:50:37.917Z,94.74
2019-02-21T02:53:07.237Z,94.70
2019-02-21T02:55:36.501Z,94.92
2019-02-21T02:58:06.669Z,94.94
2019-02-21T03:00:36.033Z,94.88
2019-02-21T03:03:05.353Z,94.84
2019-02-21T03:05:34.709Z,94.87
2019-02-21T03:08:04.052Z,94.82
2019-02-21T03:10:33.443Z,94.77
2019-02-21T03:13:02.784Z,94.73
2019-02-21T03:17:54.958Z,94.73
2019-02-21T03:20:24.256Z,94.87
2019-02-21T03:22:53.558Z,94.96
2019-02-21T03:25:22.866Z,94.92
2019-02-21T03:27:52.189Z,94.90
2019-02-21T03:30:21.555Z,94.87
2019-02-21T03:32:50.807Z,94.90
2019-02-21T03:35:20.163Z,94.88
2019-02-21T03:37:49.511Z,94.97
2019-02-21T03:40:18.781Z,95.09
2019-02-21T03:42:48.077Z,95.15
2019-02-21T03:45:17.397Z,95.25
2019-02-21T03:47:46.681Z,95.30
2019-02-21T03:50:15.970Z,95.42
2019-02-21T03:52:45.325Z,95.43
2019-02-21T03:55:14.663Z,95.47
2019-02-21T03:57:44.036Z,95.56
2019-02-21T04:00:13.570Z,95.56
2019-02-21T04:02:42.987Z,95.58
2019-02-21T04:05:12.267Z,95.63
2019-02-21T04:07:41.563Z,95.60
2019-02-21T04:10:10.933Z,95.60
2019-02-21T04:12:40.298Z,95.62
2019-02-21T04:15:10.997Z,95.65
2019-02-21T04:17:40.367Z,95.75
2019-02-21T04:20:09.645Z,95.80
2019-02-21T04:22:38.934Z,95.86
2019-02-21T04:25:08.271Z,95.91
2019-02-21T04:27:37.544Z,96.03
2019-02-21T04:30:06.938Z,96.15
2019-02-21T04:32:36.246Z,96.17
2019-02-21T04:35:05.676Z,96.16
2019-02-21T04:37:35.005Z,96.15
2019-02-21T04:40:04.603Z,96.16
2019-02-21T04:42:33.897Z,96.21
2019-02-21T04:45:03.222Z,96.31
2019-02-21T04:47:32.537Z,96.27
2019-02-21T04:50:01.853Z,96.20
2019-02-21T04:52:31.171Z,96.18
2019-02-21T04:55:00.533Z,96.17
2019-02-21T04:57:29.803Z,96.17
2019-02-21T04:59:59.160Z,96.17
2019-02-21T05:02:29.733Z,96.10
2019-02-21T05:04:59.107Z,96.07
2019-02-21T05:07:28.486Z,96.08
2019-02-21T05:09:58.532Z,96.02
2019-02-21T05:12:27.964Z,95.85
2019-02-21T05:14:57.368Z,95.82
2019-02-21T05:17:26.662Z,95.74
2019-02-21T05:19:55.946Z,95.81
2019-02-21T05:22:25.237Z,95.78
2019-02-21T05:24:54.545Z,95.72
2019-02-21T05:27:27.957Z,95.75
2019-02-21T05:29:57.211Z,95.77
2019-02-21T05:32:42.680Z,95.65
2019-02-21T05:35:31.469Z,95.72
2019-02-21T05:38:19.715Z,95.73
2019-02-21T05:41:06.262Z,95.59
2019-02-21T05:44:00.698Z,95.63
2019-02-21T05:46:47.387Z,95.81
2019-02-21T05:49:47.580Z,95.74
2019-02-21T05:52:30.386Z,95.75
2019-02-21T05:55:04.524Z,95.64
2019-02-21T05:57:42.658Z,95.57
2019-02-21T06:00:46.210Z,95.63
2019-02-21T06:03:43.269Z,95.65
2019-02-21T06:06:31.529Z,95.72
2019-02-21T06:09:24.279Z,95.86
2019-02-21T06:12:06.102Z,95.96
2019-02-21T06:14:42.958Z,96.03
2019-02-21T06:17:34.192Z,96.19
2019-02-21T06:20:25.658Z,96.11
2019-02-21T06:23:06.480Z,96.05
2019-02-21T06:25:50.858Z,96.08
2019-02-21T06:28:25.884Z,95.96
2019-02-21T06:31:07.933Z,96.05
2019-02-21T06:33:37.268Z,96.07
2019-02-21T06:36:06.560Z,96.17
2019-02-21T06:38:35.854Z,96.26
2019-02-21T06:41:05.213Z,96.23
2019-02-21T06:43:34.748Z,96.23
2019-02-21T06:46:04.052Z,96.23
2019-02-21T06:48:34.933Z,96.10
2019-02-21T06:51:04.291Z,95.98
2019-02-21T06:53:33.593Z,96.01
2019-02-21T06:56:02.898Z,96.10
2019-02-21T06:58:32.258Z,96.13
2019-02-21T07:01:01.948Z,96.03
2019-02-21T07:03:31.248Z,96.07
2019-02-21T07:06:00.572Z,96.10
2019-02-21T07:08:29.853Z,96.12
2019-02-21T07:11:06.268Z,96.16
2019-02-21T07:13:30.276Z,96.00
2019-02-21T07:15:59.639Z,95.96
2019-02-21T07:18:29.122Z,95.84
2019-02-21T07:20:58.429Z,95.96
2019-02-21T07:23:28.207Z,95.88
2019-02-21T07:26:00.960Z,95.88
2019-02-21T07:28:30.277Z,95.80
2019-02-21T07:30:59.593Z,95.72
2019-02-21T07:33:29.139Z,95.72
2019-02-21T07:35:58.405Z,95.76
2019-02-21T07:38:27.694Z,95.82
2019-02-21T07:40:57.032Z,95.82
2019-02-21T07:43:26.340Z,95.93
2019-02-21T07:45:55.931Z,96.01
2019-02-21T07:48:25.342Z,95.97
2019-02-21T07:50:54.610Z,96.11
2019-02-21T07:53:23.917Z,96.07
2019-02-21T07:55:55.746Z,96.03
2019-02-21T07:58:24.296Z,96.07
2019-02-21T08:00:54.171Z,96.06
2019-02-21T08:03:30.320Z,95.98
2019-02-21T08:05:54.486Z,95.89
2019-02-21T08:08:23.822Z,95.77
2019-02-21T08:10:53.144Z,95.81
2019-02-21T08:13:22.478Z,95.84
2019-02-21T08:15:51.746Z,95.84
2019-02-21T08:18:21.040Z,95.83
2019-02-21T08:20:50.391Z,95.82
2019-02-21T08:23:19.717Z,95.86
2019-02-21T08:25:49.002Z,95.85
2019-02-21T08:28:18.306Z,95.90
2019-02-21T08:30:47.599Z,95.95
2019-02-21T08:33:27.990Z,95.95
2019-02-21T08:35:57.996Z,95.95
2019-02-21T08:38:27.405Z,95.98
2019-02-21T08:40:57.255Z,95.93
2019-02-21T08:43:26.625Z,95.97
2019-02-21T08:45:57.555Z,95.96
2019-02-21T08:48:27.229Z,95.94
2019-02-21T08:50:56.541Z,95.91
2019-02-21T08:53:28.018Z,95.94
2019-02-21T08:55:56.886Z,95.90
2019-02-21T08:58:26.171Z,95.83
2019-02-21T09:00:55.475Z,95.84
2019-02-21T09:03:24.853Z,95.73
2019-02-21T09:05:54.171Z,95.26
2019-02-21T09:08:33.035Z,95.12
2019-02-21T09:10:54.453Z,95.24
2019-02-21T09:13:24.037Z,95.46
2019-02-21T09:15:55.836Z,95.36
2019-02-21T09:18:24.405Z,94.64
2019-02-21T09:20:53.745Z,93.92
2019-02-21T09:23:23.061Z,93.28
2019-02-21T09:25:52.396Z,93.53
2019-02-21T09:28:21.715Z,93.61
2019-02-21T09:30:51.028Z,93.39
2019-02-21T09:33:21.337Z,92.76
2019-02-21T09:35:51.010Z,93.02
2019-02-21T09:38:20.324Z,93.43
2019-02-21T09:40:49.645Z,92.81
2019-02-21T09:43:18.928Z,92.65
2019-02-21T09:45:48.262Z,93.24
2019-02-21T09:48:17.652Z,93.47
2019-02-21T09:50:47.568Z,93.27
2019-02-21T09:53:16.850Z,92.86
2019-02-21T09:55:46.195Z,92.48
2019-02-21T09:58:15.555Z,92.73
2019-02-21T10:00:44.806Z,92.80
2019-02-21T10:03:14.146Z,92.97
2019-02-21T10:05:43.519Z,93.17
2019-02-21T10:08:12.858Z,92.67
2019-02-21T10:10:42.116Z,92.88
2019-02-21T10:13:13.265Z,92.76
2019-02-21T10:15:42.989Z,92.61
2019-02-21T10:18:12.334Z,92.61
2019-02-21T10:20:41.595Z,91.98
2019-02-21T10:23:10.971Z,92.31
2019-02-21T10:25:40.304Z,92.48
2019-02-21T10:28:09.592Z,91.82
2019-02-21T10:30:38.928Z,91.33
2019-02-21T10:33:08.199Z,91.69
2019-02-21T10:35:37.458Z,91.90
2019-02-21T10:38:06.774Z,91.86
2019-02-21T10:40:36.042Z,91.63
2019-02-21T10:43:05.405Z,92.18
2019-02-21T10:45:34.780Z,92.43
2019-02-21T10:48:04.275Z,92.31
2019-02-21T10:50:33.628Z,92.25
2019-02-21T10:53:03.103Z,92.76
2019-02-21T10:55:32.416Z,93.21
2019-02-21T10:58:01.807Z,93.01
2019-02-21T11:00:31.204Z,93.35
2019-02-21T11:03:00.449Z,93.06
2019-02-21T11:05:29.757Z,92.57
2019-02-21T11:07:59.103Z,92.95
2019-02-21T11:10:28.743Z,93.06
2019-02-21T11:12:58.066Z,93.15
2019-02-21T11:15:27.500Z,92.99
2019-02-21T11:17:56.897Z,93.10
2019-02-21T11:20:26.154Z,92.98
2019-02-21T11:22:55.416Z,93.11
2019-02-21T11:25:24.703Z,93.27
2019-02-21T11:27:54.071Z,93.63
2019-02-21T11:30:23.407Z,93.38
2019-02-21T11:32:52.666Z,93.19
2019-02-21T11:35:21.962Z,93.51
2019-02-21T11:37:51.291Z,93.79
2019-02-21T11:40:20.584Z,93.89
2019-02-21T11:42:49.869Z,93.46
2019-02-21T11:45:19.718Z,93.49
2019-02-21T11:47:49.024Z,93.63
2019-02-21T11:50:18.309Z,93.47
2019-02-21T11:52:47.638Z,93.79
2019-02-21T11:55:21.612Z,93.86
2019-02-21T11:57:50.927Z,93.08
2019-02-21T12:00:24.684Z,92.95
2019-02-21T12:02:54.061Z,93.01
2019-02-21T12:05:30.530Z,93.43
2019-02-21T12:07:54.626Z,93.50
2019-02-21T12:10:23.995Z,93.39
2019-02-21T12:12:53.548Z,93.58
2019-02-21T12:15:22.875Z,94.14
2019-02-21T12:17:52.193Z,93.96
2019-02-21T12:20:21.470Z,93.97
2019-02-21T12:22:50.756Z,93.89
2019-02-21T12:25:20.180Z,93.74
2019-02-21T12:27:49.515Z,93.92
2019-02-21T12:30:19.182Z,94.34
2019-02-21T12:32:48.471Z,94.23
2019-02-21T12:35:28.826Z,94.37
2019-02-21T12:37:48.957Z,94.76
2019-02-21T12:40:18.974Z,94.67
2019-02-21T12:42:48.232Z,94.61
2019-02-21T12:45:18.942Z,94.68
2019-02-21T12:47:52.852Z,94.72
2019-02-21T12:50:19.258Z,94.47
2019-02-21T12:52:48.583Z,94.33
2019-02-21T12:55:27.251Z,94.21
2019-02-21T12:57:49.034Z,94.55
2019-02-21T13:00:18.984Z,94.70
2019-02-21T13:02:48.306Z,94.82
2019-02-21T13:05:17.781Z,94.49
2019-02-21T13:07:47.145Z,94.52
2019-02-21T13:10:17.639Z,94.35
2019-02-21T13:12:46.935Z,94.67
2019-02-21T13:15:16.223Z,95.09
2019-02-21T13:17:45.672Z,94.88
2019-02-21T13:20:15.261Z,94.78
2019-02-21T13:22:44.679Z,94.77
2019-02-21T13:25:14.212Z,94.66
2019-02-21T13:27:43.479Z,94.12
2019-02-21T13:30:14.581Z,94.65
2019-02-21T13:32:43.891Z,94.39
2019-02-21T13:35:13.242Z,94.40
2019-02-21T13:37:42.626Z,94.40
2019-02-21T13:40:13.158Z,94.72
2019-02-21T13:42:42.487Z,94.73
2019-02-21T13:45:12.864Z,94.81
2019-02-21T13:47:42.151Z,94.77
2019-02-21T13:50:13.551Z,94.46
2019-02-21T13:52:42.833Z,94.60
2019-02-21T13:55:12.247Z,95.12
2019-02-21T13:57:41.560Z,94.85
2019-02-21T14:00:13.836Z,95.35
2019-02-21T14:02:43.224Z,95.31
2019-02-21T14:05:12.589Z,95.24
2019-02-21T14:07:41.873Z,94.94
2019-02-21T14:10:11.704Z,95.14
2019-02-21T14:12:41.050Z,95.22
2019-02-21T14:15:12.874Z,95.22
2019-02-21T14:17:42.232Z,94.99
2019-02-21T14:20:11.643Z,95.24
2019-02-21T14:22:40.927Z,95.22
2019-02-21T14:25:10.242Z,95.36
2019-02-21T14:27:39.538Z,95.34
2019-02-21T14:30:11.246Z,95.27
2019-02-21T14:32:40.543Z,95.47
2019-02-21T14:35:10.867Z,95.32
2019-02-21T14:37:40.180Z,95.22
2019-02-21T14:40:10.486Z,95.26
2019-02-21T14:42:39.974Z,95.52
2019-02-21T14:45:12.606Z,95.51
2019-02-21T14:47:41.989Z,95.50
2019-02-21T14:50:11.545Z,95.83
2019-02-21T14:52:40.839Z,95.79
2019-02-21T14:55:10.966Z,95.82
2019-02-21T14:57:41.322Z,95.65
2019-02-21T15:00:16.838Z,95.77
2019-02-21T15:02:46.164Z,95.83
2019-02-21T15:05:15.446Z,96.07
2019-02-21T15:07:44.763Z,95.83
2019-02-21T15:10:14.697Z,95.75
2019-02-21T15:12:44.072Z,96.16
2019-02-21T15:15:14.626Z,96.15
2019-02-21T15:17:43.978Z,95.74
2019-02-21T15:20:14.147Z,96.04
2019-02-21T15:22:43.436Z,96.18
2019-02-21T15:25:12.714Z,96.08
2019-02-21T15:27:41.993Z,95.91
2019-02-21T15:30:13.619Z,96.13
2019-02-21T15:32:44.744Z,96.31
2019-02-21T15:35:14.103Z,95.90
2019-02-21T15:37:45.077Z,96.30
2019-02-21T15:40:14.589Z,96.37
2019-02-21T15:42:43.924Z,96.24
2019-02-21T15:45:22.988Z,96.02
2019-02-21T15:47:46.230Z,96.36
2019-02-21T15:50:15.498Z,96.42
2019-02-21T15:52:44.989Z,96.60
2019-02-21T15:55:14.994Z,96.59
2019-02-21T15:57:44.303Z,96.50
2019-02-21T16:00:15.457Z,96.33
2019-02-21T16:02:44.880Z,96.57
2019-02-21T16:05:14.312Z,96.62
2019-02-21T16:07:43.648Z,96.49
2019-02-21T16:10:15.054Z,96.59
2019-02-21T16:12:45.053Z,96.52
2019-02-21T16:15:16.377Z,96.40
2019-02-21T16:17:45.778Z,96.46
2019-02-21T16:20:15.335Z,96.55
2019-02-21T16:22:44.770Z,96.60
2019-02-21T16:25:19.322Z,96.49
2019-02-21T16:27:48.611Z,96.56
2019-02-21T16:30:17.876Z,96.50
2019-02-21T16:32:47.182Z,96.56
2019-02-21T16:35:16.508Z,96.65
2019-02-21T16:37:45.807Z,96.64
2019-02-21T16:40:15.312Z,96.64
2019-02-21T16:42:44.695Z,96.58
2019-02-21T16:45:14.662Z,96.65
2019-02-21T16:47:43.985Z,96.55
2019-02-21T16:50:13.809Z,96.61
2019-02-21T16:52:43.098Z,96.55
2019-02-21T16:55:14.700Z,96.62
2019-02-21T16:57:43.988Z,96.40
2019-02-21T17:00:14.334Z,96.42
2019-02-21T17:02:43.648Z,96.46
2019-02-21T17:05:13.963Z,96.46
2019-02-21T17:07:43.345Z,96.48
2019-02-21T17:10:14.472Z,96.41
2019-02-21T17:12:43.721Z,96.40
2019-02-21T17:15:13.353Z,96.34
2019-02-21T17:17:42.743Z,96.36
2019-02-21T17:20:13.554Z,96.37
2019-02-21T17:22:42.805Z,96.38
2019-02-21T17:25:12.951Z,96.39
2019-02-21T17:27:42.423Z,96.26
2019-02-21T17:30:14.672Z,96.26
2019-02-21T17:32:43.961Z,96.36
2019-02-21T17:35:13.533Z,96.05
2019-02-21T17:37:42.881Z,96.12
2019-02-21T17:40:14.684Z,96.03
2019-02-21T17:42:43.961Z,96.12
2019-02-21T17:45:13.580Z,96.34
2019-02-21T17:47:42.896Z,95.96
2019-02-21T17:50:12.678Z,96.04
2019-02-21T17:52:41.975Z,96.12
2019-02-21T17:55:11.491Z,96.05
2019-02-21T17:57:40.793Z,96.04
2019-02-21T18:00:13.430Z,95.70
2019-02-21T18:02:42.764Z,96.16
2019-02-21T18:05:12.055Z,96.40
2019-02-21T18:07:41.363Z,96.25
2019-02-21T18:10:12.476Z,96.25
2019-02-21T18:12:41.760Z,96.31
2019-02-21T18:15:11.324Z,96.39
2019-02-21T18:17:40.588Z,96.22
2019-02-21T18:20:10.896Z,95.94
2019-02-21T18:22:40.269Z,96.03
2019-02-21T18:25:12.758Z,96.26
2019-02-21T18:27:42.071Z,95.91
2019-02-21T18:30:12.966Z,96.11
2019-02-21T18:32:42.253Z,96.09
2019-02-21T18:35:11.984Z,95.83
2019-02-21T18:37:47.386Z,96.14
2019-02-21T18:40:17.361Z,96.07
2019-02-21T18:42:45.034Z,95.93
2019-02-21T18:45:14.452Z,96.03
2019-02-21T18:47:43.798Z,96.20
2019-02-21T18:50:13.151Z,96.02
2019-02-21T18:52:42.451Z,96.01
2019-02-21T18:55:11.840Z,95.92
2019-02-21T18:57:41.185Z,95.77
2019-02-21T19:00:12.224Z,95.94
2019-02-21T19:02:41.536Z,95.71
2019-02-21T19:05:10.863Z,95.76
2019-02-21T19:07:40.163Z,95.67
2019-02-21T19:10:11.258Z,95.55
2019-02-21T19:12:40.538Z,95.43
2019-02-21T19:15:09.975Z,95.30
2019-02-21T19:17:39.266Z,95.77
2019-02-21T19:20:09.923Z,95.74
2019-02-21T19:22:39.271Z,95.60
2019-02-21T19:25:09.408Z,95.54
2019-02-21T19:27:38.773Z,95.44
2019-02-21T19:30:11.748Z,95.43
2019-02-21T19:32:41.065Z,95.35
2019-02-21T19:35:10.447Z,95.18
2019-02-21T19:37:39.870Z,95.05
2019-02-21T19:40:09.487Z,95.11
2019-02-21T19:42:38.838Z,95.06
2019-02-21T19:45:08.502Z,95.48
2019-02-21T19:47:37.773Z,95.63
2019-02-21T19:50:07.395Z,95.78
2019-02-21T19:52:36.833Z,95.33
2019-02-21T19:55:06.282Z,95.11
2019-02-21T19:57:35.561Z,95.17
2019-02-21T20:00:05.012Z,95.09
2019-02-21T20:02:34.395Z,95.06
2019-02-21T20:05:03.675Z,95.10
2019-02-21T20:07:33.046Z,95.49
2019-02-21T20:10:02.458Z,95.71
2019-02-21T20:12:31.773Z,95.70
2019-02-21T20:15:01.015Z,95.36
2019-02-21T20:17:30.339Z,95.25
2019-02-21T20:19:59.615Z,94.85
2019-02-21T20:22:28.991Z,94.68
2019-02-21T20:24:58.376Z,93.97
2019-02-21T20:27:27.659Z,94.35
2019-02-21T20:29:56.905Z,94.35
2019-02-21T20:32:26.278Z,94.52
2019-02-21T20:34:55.729Z,94.55
2019-02-21T20:37:25.050Z,94.90
2019-02-21T20:39:55.161Z,94.41
2019-02-21T20:42:24.655Z,93.19
2019-02-21T20:44:54.086Z,92.95
2019-02-21T20:47:23.503Z,93.66
2019-02-21T20:49:52.795Z,93.88
2019-02-21T20:52:22.273Z,92.92
2019-02-21T20:54:51.593Z,92.00
2019-02-21T20:57:20.971Z,92.73
2019-02-21T20:59:50.408Z,92.81
2019-02-21T21:02:19.740Z,93.66
2019-02-21T21:04:49.001Z,93.93
2019-02-21T21:07:25.016Z,94.61
2019-02-21T21:09:49.380Z,95.09
2019-02-21T21:12:18.705Z,94.98
2019-02-21T21:14:47.991Z,94.72
2019-02-21T21:17:17.303Z,93.73
2019-02-21T21:19:46.574Z,92.48
2019-02-21T21:22:16.016Z,92.85
2019-02-21T21:24:45.364Z,92.51
2019-02-21T21:27:14.661Z,92.47
2019-02-21T21:29:44.007Z,93.12
2019-02-21T21:32:13.365Z,94.34
2019-02-21T21:34:42.857Z,93.15
2019-02-21T21:37:12.228Z,93.04
2019-02-21T21:39:41.527Z,92.93
2019-02-21T21:42:10.826Z,92.40
2019-02-21T21:44:40.323Z,92.20
2019-02-21T21:47:09.626Z,91.90
2019-02-21T21:49:38.975Z,91.48
2019-02-21T21:52:08.282Z,91.19
2019-02-21T21:54:38.074Z,90.35
2019-02-21T21:57:07.367Z,90.46
2019-02-21T21:59:36.713Z,89.30
2019-02-21T22:02:06.152Z,89.86
2019-02-21T22:04:35.457Z,87.60
2019-02-21T22:07:04.894Z,88.32
2019-02-21T22:09:34.243Z,88.82
2019-02-21T22:12:03.638Z,89.03
2019-02-21T22:14:32.936Z,90.29
2019-02-21T22:17:02.319Z,87.36
2019-02-21T22:19:31.644Z,86.85
2019-02-21T22:22:00.946Z,88.51
2019-02-21T22:24:30.350Z,87.79
2019-02-21T22:26:59.671Z,88.85
2019-02-21T22:29:28.948Z,87.82
2019-02-21T22:31:58.396Z,88.14
2019-02-21T22:34:27.774Z,87.08
2019-02-21T22:36:57.089Z,87.20
2019-02-21T22:39:26.427Z,87.32
2019-02-21T22:41:55.740Z,87.75
2019-02-21T22:44:25.043Z,87.93
2019-02-21T22:46:54.393Z,88.07
2019-02-21T22:49:23.683Z,88.30
2019-02-21T22:51:53.170Z,87.93
2019-02-21T22:54:22.450Z,89.08
2019-02-21T22:56:51.852Z,88.34
2019-02-21T22:59:21.123Z,87.47
2019-02-21T23:01:50.630Z,86.29
2019-02-21T23:04:26.069Z,86.67
2019-02-21T23:07:17.517Z,85.63
2019-02-21T23:09:46.917Z,83.38
2019-02-21T23:12:16.188Z,84.49
2019-02-21T23:14:45.513Z,83.42
2019-02-21T23:17:14.908Z,82.70
2019-02-21T23:19:44.239Z,82.21
2019-02-21T23:22:13.545Z,80.22
2019-02-21T23:24:42.853Z,80.36
2019-02-21T23:27:12.164Z,82.30
2019-02-21T23:29:41.458Z,83.34
2019-02-21T23:32:10.843Z,83.97
2019-02-21T23:34:42.884Z,84.85
2019-02-21T23:37:12.237Z,84.69
2019-02-21T23:39:41.528Z,83.07
2019-02-21T23:42:10.830Z,83.70
2019-02-21T23:44:40.095Z,83.22
2019-02-21T23:47:09.397Z,80.83
2019-02-21T23:49:38.755Z,81.62
2019-02-21T23:52:08.058Z,81.62
2019-02-21T23:54:37.333Z,81.82
2019-02-21T23:57:06.675Z,82.89
2019-02-21T23:59:36.031Z,82.52
